Time;durP1;ratioP1;P1;durP2;ratioP2;P2;SDS_P1;SDS_P2;PMS_P1;PMS_P2;Temp;Humidity;BMP_temperature;BMP_pressure;BME280_temperature;BME280_humidity;BME280_pressure;Samples;Min_cycle;Max_cycle;Signal;HPM_P1;HPM_P2
2023/12/07 00:01:40;;;;;;;13.00;7.80;;;2.70;99.90;;;;;;5043189;28;20052;-75
2023/12/07 00:04:06;;;;;;;14.70;7.57;;;2.70;99.90;;;;;;5048333;28;20041;-75
2023/12/07 00:06:32;;;;;;;14.90;7.85;;;2.70;99.90;;;;;;5044222;28;20033;-75
2023/12/07 00:08:58;;;;;;;13.07;7.72;;;2.70;99.90;;;;;;5040185;28;20049;-74
2023/12/07 00:11:24;;;;;;;17.23;8.50;;;2.70;99.90;;;;;;5040366;28;20084;-75
2023/12/07 00:13:50;;;;;;;13.20;7.70;;;2.70;99.90;;;;;;5048075;28;20048;-74
2023/12/07 00:16:15;;;;;;;14.90;7.47;;;2.70;99.90;;;;;;5048694;28;20045;-74
2023/12/07 00:18:41;;;;;;;11.27;7.00;;;2.70;99.90;;;;;;5040710;28;20493;-75
2023/12/07 00:21:10;;;;;;;11.50;6.78;;;2.70;99.90;;;;;;5046424;28;20045;-75
2023/12/07 00:23:37;;;;;;;12.48;7.40;;;2.60;99.90;;;;;;5048593;28;20076;-75
2023/12/07 00:26:04;;;;;;;16.25;7.13;;;2.70;99.90;;;;;;5034004;28;20126;-75
2023/12/07 00:28:29;;;;;;;13.43;7.00;;;2.70;99.90;;;;;;5048530;28;20037;-75
2023/12/07 00:30:55;;;;;;;12.82;7.05;;;2.70;99.90;;;;;;5047279;28;20033;-75
2023/12/07 00:33:21;;;;;;;11.30;6.60;;;2.70;99.90;;;;;;5045375;28;20083;-75
2023/12/07 00:35:47;;;;;;;11.95;7.03;;;2.70;99.90;;;;;;5039470;28;20036;-75
2023/12/07 00:38:13;;;;;;;11.70;5.97;;;2.60;99.90;;;;;;5041390;28;20596;-75
2023/12/07 00:40:39;;;;;;;11.65;5.97;;;2.60;99.90;;;;;;5044481;28;20045;-75
2023/12/07 00:43:07;;;;;;;11.73;6.67;;;2.60;99.90;;;;;;5043240;28;20059;-75
2023/12/07 00:45:32;;;;;;;11.20;6.50;;;2.50;99.90;;;;;;5040498;28;20040;-75
2023/12/07 00:47:58;;;;;;;11.45;6.32;;;2.50;99.90;;;;;;5041658;28;20049;-75
2023/12/07 00:50:23;;;;;;;15.18;6.68;;;2.40;99.90;;;;;;5043238;28;20040;-75
2023/12/07 00:52:49;;;;;;;11.02;6.75;;;2.40;99.90;;;;;;5047952;28;20421;-75
2023/12/07 00:55:15;;;;;;;11.07;6.85;;;2.40;99.90;;;;;;5042775;28;20118;-75
2023/12/07 00:57:40;;;;;;;10.13;6.30;;;2.40;99.90;;;;;;5034991;28;20077;-75
2023/12/07 01:00:07;;;;;;;11.95;6.68;;;2.40;99.90;;;;;;5044324;28;20396;-75
2023/12/07 01:02:34;;;;;;;12.38;6.78;;;2.40;99.90;;;;;;5042755;28;20052;-75
2023/12/07 01:04:59;;;;;;;12.18;6.97;;;2.40;99.90;;;;;;5046051;28;20377;-75
2023/12/07 01:07:25;;;;;;;14.18;6.72;;;2.40;99.90;;;;;;5050646;28;20052;-75
2023/12/07 01:09:50;;;;;;;12.32;7.35;;;2.40;99.90;;;;;;5038856;28;20041;-75
2023/12/07 01:12:16;;;;;;;13.00;7.13;;;2.40;99.90;;;;;;5039413;28;20037;-75
2023/12/07 01:14:42;;;;;;;12.32;7.07;;;2.40;99.90;;;;;;5073933;28;20373;-75
2023/12/07 01:17:07;;;;;;;13.98;7.63;;;2.40;99.90;;;;;;5045447;28;20051;-73
2023/12/07 01:19:34;;;;;;;14.05;7.60;;;2.40;99.90;;;;;;5045117;28;20049;-74
2023/12/07 01:21:59;;;;;;;13.88;7.47;;;2.40;99.90;;;;;;5043859;28;20488;-74
2023/12/07 01:24:25;;;;;;;13.82;6.78;;;2.40;99.90;;;;;;5046024;28;20049;-74
2023/12/07 01:26:51;;;;;;;11.77;6.80;;;2.40;99.90;;;;;;5045731;28;20443;-74
2023/12/07 01:29:17;;;;;;;13.90;8.00;;;2.40;99.90;;;;;;5045993;28;20063;-75
2023/12/07 01:31:43;;;;;;;14.00;7.27;;;2.40;99.90;;;;;;5041774;28;20081;-74
2023/12/07 01:34:09;;;;;;;16.10;7.22;;;2.30;99.90;;;;;;5039276;28;20817;-74
2023/12/07 01:36:35;;;;;;;12.80;7.22;;;2.30;99.90;;;;;;5044085;28;20045;-74
2023/12/07 01:39:00;;;;;;;14.63;7.55;;;2.40;99.90;;;;;;5047925;28;20126;-74
2023/12/07 01:41:26;;;;;;;14.65;7.68;;;2.40;99.90;;;;;;5042111;28;20045;-73
2023/12/07 01:43:51;;;;;;;17.20;7.88;;;2.40;99.90;;;;;;5044967;28;20045;-74
2023/12/07 01:46:18;;;;;;;13.25;8.10;;;2.40;99.90;;;;;;5040324;28;20040;-74
2023/12/07 01:48:44;;;;;;;11.93;6.75;;;2.30;99.90;;;;;;5042149;28;20128;-74
2023/12/07 01:51:11;;;;;;;13.00;7.40;;;2.30;99.90;;;;;;5040931;28;20033;-74
2023/12/07 01:53:39;;;;;;;13.18;7.53;;;2.30;99.90;;;;;;5045341;28;20041;-74
2023/12/07 01:56:05;;;;;;;13.57;6.75;;;2.40;99.90;;;;;;5045148;28;20305;-74
2023/12/07 01:58:31;;;;;;;13.27;7.10;;;2.30;99.90;;;;;;5037856;28;20053;-74
2023/12/07 02:00:57;;;;;;;15.05;8.05;;;2.30;99.90;;;;;;5045757;28;20056;-74
2023/12/07 02:03:23;;;;;;;13.68;7.63;;;2.30;99.90;;;;;;5034682;28;20053;-74
2023/12/07 02:05:50;;;;;;;13.50;7.20;;;2.30;99.90;;;;;;5045124;28;20045;-74
2023/12/07 02:08:16;;;;;;;16.05;8.35;;;2.40;99.90;;;;;;5062748;28;20295;-74
2023/12/07 02:10:42;;;;;;;14.80;8.15;;;2.40;99.90;;;;;;5037651;28;20045;-74
2023/12/07 02:13:08;;;;;;;15.38;8.20;;;2.40;99.90;;;;;;5040980;28;20037;-74
2023/12/07 02:15:35;;;;;;;12.25;7.00;;;2.40;99.90;;;;;;5040171;28;20068;-74
2023/12/07 02:18:10;;;;;;;13.75;7.43;;;2.40;99.90;;;;;;5038664;28;20048;-74
2023/12/07 02:20:51;;;;;;;14.30;7.28;;;2.40;99.90;;;;;;5038556;28;20045;-74
2023/12/07 02:23:18;;;;;;;15.30;8.50;;;2.40;99.90;;;;;;5034140;28;20040;-74
2023/12/07 02:25:54;;;;;;;17.13;8.00;;;2.40;99.90;;;;;;5041371;28;20086;-74
2023/12/07 02:28:20;;;;;;;13.68;8.20;;;2.30;99.90;;;;;;5037646;28;20307;-74
2023/12/07 02:30:46;;;;;;;15.50;8.48;;;2.40;99.90;;;;;;5041911;28;20045;-74
2023/12/07 02:33:12;;;;;;;11.98;7.68;;;2.30;99.90;;;;;;5036053;28;20046;-74
2023/12/07 02:35:38;;;;;;;15.52;8.38;;;2.30;99.90;;;;;;5045782;28;20045;-74
2023/12/07 02:38:06;;;;;;;16.42;8.00;;;2.30;99.90;;;;;;5040277;28;20465;-74
2023/12/07 02:40:32;;;;;;;14.40;7.68;;;2.30;99.90;;;;;;5042264;28;20049;-74
2023/12/07 02:43:00;;;;;;;12.40;7.40;;;2.30;99.90;;;;;;5043480;28;20064;-74
2023/12/07 02:45:26;;;;;;;14.50;7.53;;;2.30;99.90;;;;;;5036096;28;20164;-74
2023/12/07 02:47:52;;;;;;;13.40;7.17;;;2.30;99.90;;;;;;5049028;28;20488;-74
2023/12/07 02:50:18;;;;;;;13.15;6.70;;;2.30;99.90;;;;;;5047923;28;20094;-74
2023/12/07 02:52:44;;;;;;;14.30;7.65;;;2.30;99.90;;;;;;5046128;28;20099;-74
2023/12/07 02:55:10;;;;;;;16.48;7.93;;;2.30;99.90;;;;;;5038147;28;20113;-74
2023/12/07 02:57:35;;;;;;;14.52;7.75;;;2.40;99.90;;;;;;5050431;28;20083;-74
2023/12/07 03:00:07;;;;;;;13.90;7.47;;;2.40;99.90;;;;;;5042016;28;20106;-74
2023/12/07 03:02:37;;;;;;;14.23;8.15;;;2.40;99.90;;;;;;5037956;28;20091;-74
2023/12/07 03:05:04;;;;;;;15.20;8.00;;;2.40;99.90;;;;;;5044654;28;20086;-74
2023/12/07 03:07:30;;;;;;;14.30;7.13;;;2.40;99.90;;;;;;5051996;28;20059;-74
2023/12/07 03:09:55;;;;;;;15.90;9.20;;;2.40;99.90;;;;;;5038653;28;20295;-74
2023/12/07 03:12:22;;;;;;;13.63;7.55;;;2.40;99.90;;;;;;5040701;28;20092;-74
2023/12/07 03:14:48;;;;;;;18.73;8.48;;;2.40;99.90;;;;;;5049812;28;20056;-74
2023/12/07 03:17:14;;;;;;;15.80;7.90;;;2.40;99.90;;;;;;5053129;28;20041;-74
2023/12/07 03:19:40;;;;;;;16.25;7.38;;;2.40;99.90;;;;;;5046694;28;20087;-74
2023/12/07 03:22:07;;;;;;;14.43;8.10;;;2.40;99.90;;;;;;5032193;28;20057;-74
2023/12/07 03:24:36;;;;;;;14.63;7.83;;;2.50;99.90;;;;;;5044702;28;20048;-74
2023/12/07 03:27:02;;;;;;;15.98;8.55;;;2.30;99.90;;;;;;5040619;28;20300;-74
2023/12/07 03:29:27;;;;;;;17.00;9.00;;;2.40;99.90;;;;;;5041769;28;21580;-74
2023/12/07 03:31:53;;;;;;;14.88;8.18;;;2.40;99.90;;;;;;5039987;28;21609;-74
2023/12/07 03:34:18;;;;;;;16.20;9.02;;;2.40;99.90;;;;;;5040000;28;20453;-74
2023/12/07 03:36:48;;;;;;;20.33;9.10;;;2.30;99.90;;;;;;5036585;28;20033;-74
2023/12/07 03:39:14;;;;;;;16.02;8.20;;;2.30;99.90;;;;;;5036176;28;20095;-74
2023/12/07 03:41:40;;;;;;;15.10;8.17;;;2.30;99.90;;;;;;5036074;28;20036;-74
2023/12/07 03:44:06;;;;;;;15.05;8.50;;;2.30;99.90;;;;;;5040703;28;20369;-74
2023/12/07 03:46:32;;;;;;;18.05;9.25;;;2.30;99.90;;;;;;5046396;28;20029;-74
2023/12/07 03:48:57;;;;;;;14.35;8.27;;;2.30;99.90;;;;;;5044163;28;20048;-74
2023/12/07 03:51:23;;;;;;;16.42;7.85;;;2.20;99.90;;;;;;5073181;28;20041;-74
2023/12/07 03:53:49;;;;;;;16.13;8.70;;;2.20;99.90;;;;;;5049649;28;20135;-73
2023/12/07 03:56:28;;;;;;;15.38;8.18;;;2.20;99.90;;;;;;5046688;28;20518;-73
2023/12/07 03:58:55;;;;;;;15.32;8.77;;;2.20;99.90;;;;;;5066745;28;20065;-74
2023/12/07 04:01:28;;;;;;;15.15;8.13;;;2.10;99.90;;;;;;5040071;28;20041;-74
2023/12/07 04:03:55;;;;;;;13.90;8.00;;;2.00;99.90;;;;;;5040430;28;20515;-74
2023/12/07 04:06:22;;;;;;;16.60;8.70;;;2.00;99.90;;;;;;5046995;28;20063;-74
2023/12/07 04:08:48;;;;;;;16.80;8.52;;;1.90;99.90;;;;;;5037622;28;20072;-74
2023/12/07 04:11:14;;;;;;;18.20;9.43;;;1.90;99.90;;;;;;5039630;28;20068;-74
2023/12/07 04:13:41;;;;;;;16.42;9.38;;;1.80;99.90;;;;;;5042452;28;20045;-74
2023/12/07 04:16:07;;;;;;;17.63;9.13;;;1.90;99.90;;;;;;5037801;28;20049;-74
2023/12/07 04:18:33;;;;;;;15.88;8.52;;;1.90;99.90;;;;;;5040008;28;20132;-74
2023/12/07 04:20:58;;;;;;;16.35;8.50;;;1.80;99.90;;;;;;5039221;28;20465;-74
2023/12/07 04:23:24;;;;;;;17.42;8.85;;;1.80;99.90;;;;;;5041240;28;20067;-74
2023/12/07 04:25:50;;;;;;;14.65;9.02;;;1.80;99.90;;;;;;5038551;28;20527;-74
2023/12/07 04:28:15;;;;;;;18.75;9.05;;;1.80;99.90;;;;;;5042177;28;20479;-74
2023/12/07 04:30:41;;;;;;;15.48;8.45;;;1.80;99.90;;;;;;5043395;28;20049;-74
2023/12/07 04:33:06;;;;;;;17.92;9.85;;;1.80;99.90;;;;;;5042764;28;20564;-74
2023/12/07 04:35:32;;;;;;;15.73;8.73;;;1.80;99.90;;;;;;5046752;28;20057;-74
2023/12/07 04:37:58;;;;;;;17.95;9.25;;;1.80;99.90;;;;;;5047633;28;20088;-74
2023/12/07 04:40:25;;;;;;;15.73;9.23;;;1.80;99.90;;;;;;5041008;28;20047;-74
2023/12/07 04:42:50;;;;;;;16.20;9.07;;;1.70;99.90;;;;;;5034102;28;20107;-74
2023/12/07 04:45:16;;;;;;;15.20;8.25;;;1.80;99.90;;;;;;5051571;28;20045;-74
2023/12/07 04:47:42;;;;;;;15.00;9.35;;;1.80;99.90;;;;;;5039210;28;20083;-74
2023/12/07 04:50:09;;;;;;;15.88;8.15;;;1.80;99.90;;;;;;5034754;28;20053;-74
2023/12/07 04:52:35;;;;;;;17.80;8.73;;;1.80;99.90;;;;;;5040740;28;20051;-74
2023/12/07 04:55:01;;;;;;;18.13;9.82;;;1.80;99.90;;;;;;5044410;28;20116;-74
2023/12/07 04:57:26;;;;;;;14.77;8.52;;;1.80;99.90;;;;;;5039318;28;20148;-74
2023/12/07 04:59:52;;;;;;;17.08;9.10;;;1.80;99.90;;;;;;5040218;28;20123;-74
2023/12/07 05:02:17;;;;;;;14.52;8.15;;;1.80;99.90;;;;;;5034534;28;20076;-74
2023/12/07 05:04:44;;;;;;;17.27;8.38;;;1.80;99.90;;;;;;5039802;28;20069;-74
2023/12/07 05:07:11;;;;;;;15.15;7.95;;;1.80;99.90;;;;;;5044229;28;20056;-74
2023/12/07 05:09:38;;;;;;;18.95;9.05;;;1.80;99.90;;;;;;5042273;28;20040;-74
2023/12/07 05:12:04;;;;;;;16.05;9.35;;;1.80;99.90;;;;;;5043689;28;20499;-74
2023/12/07 05:14:31;;;;;;;19.10;9.00;;;1.80;99.90;;;;;;5042669;28;20610;-74
2023/12/07 05:16:57;;;;;;;15.43;9.27;;;1.70;99.90;;;;;;5048253;28;20369;-74
2023/12/07 05:19:24;;;;;;;16.92;9.32;;;1.70;99.90;;;;;;5045413;28;20044;-74
2023/12/07 05:21:50;;;;;;;15.50;8.77;;;1.70;99.90;;;;;;5044203;28;20262;-73
2023/12/07 05:24:16;;;;;;;17.60;9.25;;;1.70;99.90;;;;;;5045094;28;20480;-74
2023/12/07 05:26:42;;;;;;;18.27;8.73;;;1.70;99.90;;;;;;5036524;28;20068;-74
2023/12/07 05:29:08;;;;;;;15.30;7.88;;;1.70;99.90;;;;;;5035970;28;20053;-74
2023/12/07 05:31:34;;;;;;;14.70;8.20;;;1.70;99.90;;;;;;5041482;28;20160;-74
2023/12/07 05:33:59;;;;;;;14.00;7.68;;;1.70;99.90;;;;;;5042124;28;20400;-74
2023/12/07 05:36:26;;;;;;;17.80;9.38;;;1.70;99.90;;;;;;5045181;28;20102;-74
2023/12/07 05:38:51;;;;;;;16.67;8.83;;;1.70;99.90;;;;;;5043247;28;20098;-74
2023/12/07 05:41:17;;;;;;;18.45;9.93;;;1.60;99.90;;;;;;5045858;28;20037;-74
2023/12/07 05:43:43;;;;;;;16.85;8.52;;;1.60;99.90;;;;;;5043364;28;20106;-74
2023/12/07 05:46:09;;;;;;;15.98;8.35;;;1.60;99.90;;;;;;5037372;28;21385;-74
2023/12/07 05:48:34;;;;;;;16.63;8.88;;;1.60;99.90;;;;;;5037984;28;20048;-74
2023/12/07 05:51:02;;;;;;;14.48;8.13;;;1.60;99.90;;;;;;5050650;28;20040;-75
2023/12/07 05:53:27;;;;;;;19.55;8.43;;;1.50;99.90;;;;;;5036416;28;20048;-74
2023/12/07 05:55:54;;;;;;;16.90;8.68;;;1.50;99.90;;;;;;5039511;28;20663;-75
2023/12/07 05:58:20;;;;;;;16.65;9.23;;;1.50;99.90;;;;;;5042280;28;20480;-74
2023/12/07 06:00:46;;;;;;;17.20;8.68;;;1.50;99.90;;;;;;5041272;28;20064;-74
2023/12/07 06:03:13;;;;;;;17.42;8.65;;;1.50;99.90;;;;;;5040282;28;20477;-74
2023/12/07 06:05:39;;;;;;;16.75;9.10;;;1.50;99.90;;;;;;5042197;28;20045;-75
2023/12/07 06:08:05;;;;;;;15.15;8.93;;;1.40;99.90;;;;;;5042321;28;20711;-74
2023/12/07 06:10:30;;;;;;;16.15;8.52;;;1.50;99.90;;;;;;5036279;28;20041;-74
2023/12/07 06:12:58;;;;;;;19.50;9.85;;;1.40;99.90;;;;;;5040743;28;20180;-74
2023/12/07 06:15:23;;;;;;;;;;;1.50;99.90;;;;;;5045363;28;20041;-74
2023/12/07 06:17:49;;;;;;;17.13;8.63;;;1.50;99.90;;;;;;5048786;28;20266;-74
2023/12/07 06:20:15;;;;;;;18.85;9.32;;;1.50;99.90;;;;;;5048740;28;20041;-74
2023/12/07 06:22:41;;;;;;;18.60;9.60;;;1.50;99.90;;;;;;5050812;28;20086;-74
2023/12/07 06:25:08;;;;;;;20.95;10.05;;;1.50;99.90;;;;;;5045191;28;20668;-74
2023/12/07 06:27:37;;;;;;;17.08;8.55;;;1.50;99.90;;;;;;5038142;28;20052;-74
2023/12/07 06:30:08;;;;;;;16.70;8.98;;;1.50;99.90;;;;;;5035970;28;20132;-74
2023/12/07 06:32:33;;;;;;;18.55;9.10;;;1.50;99.90;;;;;;5045243;28;20086;-74
2023/12/07 06:35:00;;;;;;;18.67;9.93;;;1.50;99.90;;;;;;5048497;28;20727;-75
2023/12/07 06:37:26;;;;;;;18.42;9.27;;;1.60;99.90;;;;;;5049073;28;20700;-74
2023/12/07 06:39:52;;;;;;;19.15;9.48;;;1.50;99.90;;;;;;5045470;28;20064;-74
2023/12/07 06:42:18;;;;;;;18.13;10.63;;;1.60;99.90;;;;;;5047297;28;20064;-75
2023/12/07 06:44:48;;;;;;;23.58;14.07;;;1.60;99.90;;;;;;5038159;28;20419;-74
2023/12/07 06:47:14;;;;;;;18.80;10.55;;;1.60;99.90;;;;;;5039634;28;20099;-73
2023/12/07 06:49:39;;;;;;;22.55;11.63;;;1.60;99.90;;;;;;5042701;28;20045;-75
2023/12/07 06:52:05;;;;;;;20.58;10.63;;;1.60;99.90;;;;;;5036982;28;20065;-75
2023/12/07 06:54:31;;;;;;;20.55;10.85;;;1.60;99.90;;;;;;5042639;28;20102;-74
2023/12/07 06:56:56;;;;;;;21.95;12.00;;;1.60;99.90;;;;;;5043977;28;20078;-73
2023/12/07 06:59:22;;;;;;;25.05;12.20;;;1.70;99.90;;;;;;5037839;28;20171;-73
2023/12/07 07:01:48;;;;;;;22.77;13.82;;;1.70;99.90;;;;;;5037072;28;20540;-74
2023/12/07 07:04:14;;;;;;;25.17;13.13;;;1.70;99.90;;;;;;5041072;28;20037;-74
2023/12/07 07:06:41;;;;;;;21.95;11.88;;;1.70;99.90;;;;;;5039054;28;20044;-74
2023/12/07 07:09:06;;;;;;;22.08;11.63;;;1.70;99.90;;;;;;5037131;28;20629;-74
2023/12/07 07:11:32;;;;;;;25.33;11.18;;;1.70;99.90;;;;;;5068862;28;20052;-74
2023/12/07 07:13:58;;;;;;;22.40;11.10;;;1.70;99.90;;;;;;5039926;28;20052;-74
2023/12/07 07:16:24;;;;;;;23.13;12.15;;;1.70;99.90;;;;;;5041682;28;20107;-73
2023/12/07 07:18:50;;;;;;;23.58;11.70;;;1.70;99.90;;;;;;5044705;28;20543;-73
2023/12/07 07:21:15;;;;;;;21.95;11.60;;;1.70;99.90;;;;;;5043769;28;20163;-74
2023/12/07 07:23:41;;;;;;;25.17;12.73;;;1.70;99.90;;;;;;5036394;28;20076;-74
2023/12/07 07:26:08;;;;;;;23.45;12.02;;;1.70;99.90;;;;;;5038082;28;20044;-75
2023/12/07 07:28:34;;;;;;;21.25;12.60;;;1.80;99.90;;;;;;5040103;28;20571;-75
2023/12/07 07:31:00;;;;;;;25.33;13.07;;;1.80;99.90;;;;;;5036887;28;20073;-74
2023/12/07 07:33:26;;;;;;;25.40;14.13;;;1.80;99.90;;;;;;5034794;28;20146;-74
2023/12/07 07:35:52;;;;;;;24.88;12.93;;;1.80;99.90;;;;;;5066796;28;20456;-75
2023/12/07 07:38:17;;;;;;;28.20;12.93;;;1.80;99.90;;;;;;5043583;28;20044;-75
2023/12/07 07:40:45;;;;;;;26.08;13.32;;;1.80;99.90;;;;;;5039670;28;21385;-76
2023/12/07 07:43:11;;;;;;;24.08;13.27;;;1.80;99.90;;;;;;5037401;28;20678;-75
2023/12/07 07:45:36;;;;;;;21.52;11.70;;;1.80;99.90;;;;;;5035192;28;20040;-75
2023/12/07 07:48:02;;;;;;;20.02;11.70;;;1.80;99.90;;;;;;5038811;28;20125;-75
2023/12/07 07:50:28;;;;;;;21.92;12.18;;;1.90;99.90;;;;;;5043088;28;20048;-75
2023/12/07 07:52:55;;;;;;;21.73;12.57;;;1.80;99.90;;;;;;5042915;28;20559;-76
2023/12/07 07:55:20;;;;;;;25.17;13.40;;;1.90;99.90;;;;;;5037845;28;20037;-75
2023/12/07 07:57:46;;;;;;;21.58;12.60;;;1.90;99.90;;;;;;5035199;28;20654;-75
2023/12/07 08:00:13;;;;;;;22.90;13.45;;;1.90;99.90;;;;;;5038747;28;20402;-75
2023/12/07 08:02:38;;;;;;;26.13;14.03;;;1.90;99.90;;;;;;5038465;28;20091;-76
2023/12/07 08:05:04;;;;;;;31.77;13.80;;;1.90;99.90;;;;;;5034691;28;20049;-76
2023/12/07 08:07:30;;;;;;;22.55;13.48;;;1.90;99.90;;;;;;5038250;28;20100;-75
2023/12/07 08:09:55;;;;;;;24.67;12.95;;;1.90;99.90;;;;;;5038815;28;20045;-75
2023/12/07 08:12:23;;;;;;;27.50;13.73;;;2.00;99.90;;;;;;5043679;28;20347;-75
2023/12/07 08:14:49;;;;;;;24.80;14.13;;;1.90;99.90;;;;;;5047684;28;20033;-75
2023/12/07 08:17:15;;;;;;;24.75;13.98;;;2.00;99.90;;;;;;5042073;28;20076;-76
2023/12/07 08:19:43;;;;;;;23.65;13.43;;;2.00;99.90;;;;;;5037706;28;20131;-76
2023/12/07 08:22:10;;;;;;;21.88;11.95;;;2.00;99.90;;;;;;5038189;28;20099;-75
2023/12/07 08:24:37;;;;;;;22.23;12.63;;;2.00;99.90;;;;;;5033632;28;20052;-75
2023/12/07 08:27:03;;;;;;;21.10;13.05;;;2.00;99.90;;;;;;5039167;28;20412;-74
2023/12/07 08:29:29;;;;;;;23.98;12.57;;;2.00;99.90;;;;;;5051698;28;20072;-73
2023/12/07 08:31:54;;;;;;;21.33;11.75;;;2.00;99.90;;;;;;5046985;28;20072;-72
2023/12/07 08:34:20;;;;;;;25.25;14.13;;;2.00;99.90;;;;;;5041625;28;20069;-72
2023/12/07 08:36:46;;;;;;;19.33;11.68;;;1.90;99.90;;;;;;5042178;28;20048;-73
2023/12/07 08:39:11;;;;;;;22.50;12.38;;;1.90;99.90;;;;;;5037002;28;20045;-73
2023/12/07 08:41:37;;;;;;;27.95;12.50;;;1.90;99.90;;;;;;5049616;28;20044;-73
2023/12/07 08:44:04;;;;;;;20.50;12.35;;;2.00;99.90;;;;;;5045856;28;20047;-73
2023/12/07 08:46:29;;;;;;;26.10;14.23;;;1.90;99.90;;;;;;5041465;28;20505;-72
2023/12/07 08:48:56;;;;;;;24.23;13.93;;;2.00;99.90;;;;;;5042403;28;20040;-73
2023/12/07 08:51:22;;;;;;;22.63;13.35;;;2.00;99.90;;;;;;5048863;28;20052;-73
2023/12/07 08:53:47;;;;;;;26.92;15.10;;;2.00;99.90;;;;;;5047931;28;20096;-73
2023/12/07 08:56:13;;;;;;;25.52;13.80;;;2.00;99.90;;;;;;5047207;28;20111;-72
2023/12/07 08:58:39;;;;;;;24.60;13.82;;;2.00;99.90;;;;;;5047810;28;20052;-73
2023/12/07 09:01:05;;;;;;;26.92;14.70;;;2.00;99.90;;;;;;5047024;28;20044;-73
2023/12/07 09:03:31;;;;;;;32.03;15.15;;;2.10;99.90;;;;;;5051803;28;20468;-73
2023/12/07 09:06:01;;;;;;;27.35;14.95;;;2.10;99.90;;;;;;5036244;28;20052;-72
2023/12/07 09:08:26;;;;;;;26.35;14.82;;;2.10;99.90;;;;;;5058871;28;20028;-73
2023/12/07 09:10:52;;;;;;;27.35;14.57;;;2.10;99.90;;;;;;5044074;28;20044;-73
2023/12/07 09:13:18;;;;;;;30.52;15.48;;;2.10;99.90;;;;;;5050784;28;20377;-73
2023/12/07 09:15:44;;;;;;;29.98;14.40;;;2.10;99.90;;;;;;5048008;28;20041;-73
2023/12/07 09:18:13;;;;;;;33.45;16.45;;;2.10;99.90;;;;;;5034221;28;20095;-72
2023/12/07 09:20:49;;;;;;;29.90;14.68;;;2.10;99.90;;;;;;5045469;28;20041;-72
2023/12/07 09:23:15;;;;;;;29.38;14.43;;;2.10;99.90;;;;;;5032218;28;20052;-72
2023/12/07 09:25:42;;;;;;;31.75;13.82;;;2.10;99.90;;;;;;5034282;28;20544;-73
2023/12/07 09:28:08;;;;;;;33.73;11.90;;;2.10;99.90;;;;;;5042527;28;20045;-73
2023/12/07 09:30:33;;;;;;;21.83;11.20;;;2.10;99.90;;;;;;5039603;28;20773;-76
2023/12/07 09:33:00;;;;;;;21.40;10.60;;;2.00;99.90;;;;;;5034174;28;20045;-73
2023/12/07 09:35:25;;;;;;;27.52;10.35;;;1.90;99.90;;;;;;5043871;28;20044;-74
2023/12/07 09:37:51;;;;;;;17.20;10.13;;;1.80;99.90;;;;;;5033346;28;20496;-73
2023/12/07 09:40:19;;;;;;;21.90;10.48;;;1.70;99.90;;;;;;5041624;28;20053;-73
2023/12/07 09:42:46;;;;;;;30.85;11.20;;;1.70;99.90;;;;;;5040882;28;20052;-73
2023/12/07 09:45:14;;;;;;;23.13;12.07;;;1.70;99.90;;;;;;5040215;28;20045;-73
2023/12/07 09:47:40;;;;;;;22.00;11.48;;;1.70;99.90;;;;;;5036203;28;20165;-74
2023/12/07 09:50:11;;;;;;;21.77;12.35;;;1.60;99.90;;;;;;5032360;28;20124;-73
2023/12/07 09:52:38;;;;;;;22.55;11.73;;;1.60;99.90;;;;;;5041329;28;20129;-73
2023/12/07 09:55:05;;;;;;;26.33;13.57;;;1.60;99.90;;;;;;5040201;28;20041;-74
2023/12/07 09:57:31;;;;;;;24.33;11.73;;;1.60;99.90;;;;;;5037947;28;20052;-75
2023/12/07 09:59:57;;;;;;;26.50;12.67;;;1.70;99.90;;;;;;5036068;28;20452;-75
2023/12/07 10:02:24;;;;;;;27.27;13.23;;;1.60;99.90;;;;;;5045544;28;20056;-74
2023/12/07 10:05:06;;;;;;;25.80;12.47;;;1.60;99.90;;;;;;5047198;28;20053;-74
2023/12/07 10:07:37;;;;;;;27.25;12.80;;;1.70;99.90;;;;;;5045824;28;20444;-77
2023/12/07 10:10:04;;;;;;;19.63;10.98;;;1.60;99.90;;;;;;5042899;28;20090;-76
2023/12/07 10:12:34;;;;;;;18.27;9.82;;;1.70;99.90;;;;;;5045096;28;20037;-76
2023/12/07 10:15:03;;;;;;;25.42;12.07;;;1.70;99.90;;;;;;5047197;28;20037;-76
2023/12/07 10:17:47;;;;;;;24.95;12.07;;;1.70;99.90;;;;;;5042226;28;20080;-75
2023/12/07 10:20:14;;;;;;;32.53;14.10;;;1.70;99.90;;;;;;5043918;28;20679;-75
2023/12/07 10:22:40;;;;;;;23.90;11.98;;;1.70;99.90;;;;;;5049235;28;20080;-74
2023/12/07 10:25:06;;;;;;;25.45;13.25;;;1.70;99.90;;;;;;5047933;28;20126;-73
2023/12/07 10:27:31;;;;;;;23.08;11.90;;;1.70;99.90;;;;;;5032509;28;20125;-75
2023/12/07 10:29:59;;;;;;;23.98;13.00;;;1.70;99.90;;;;;;5045050;28;20116;-74
2023/12/07 10:32:25;;;;;;;31.02;12.98;;;1.70;99.90;;;;;;5042122;28;20049;-75
2023/12/07 10:34:52;;;;;;;25.02;12.68;;;1.80;99.90;;;;;;5048330;28;20037;-74
2023/12/07 10:37:18;;;;;;;22.73;11.83;;;1.80;99.90;;;;;;5049263;28;20108;-74
2023/12/07 10:39:43;;;;;;;26.17;13.68;;;1.80;99.90;;;;;;5044335;28;20128;-76
2023/12/07 10:42:12;;;;;;;28.20;13.65;;;1.90;99.90;;;;;;5046211;28;20036;-76
2023/12/07 10:44:42;;;;;;;30.38;13.30;;;1.90;99.90;;;;;;5046190;28;20400;-76
2023/12/07 10:47:10;;;;;;;28.75;13.63;;;1.90;99.90;;;;;;5043655;28;20048;-76
2023/12/07 10:49:40;;;;;;;32.47;14.95;;;1.90;99.90;;;;;;5044982;28;20053;-76
2023/12/07 10:52:13;;;;;;;30.30;14.75;;;1.90;99.90;;;;;;5047045;28;20404;-76
2023/12/07 10:55:02;;;;;;;33.40;16.60;;;1.90;99.90;;;;;;5049579;28;20135;-76
2023/12/07 10:57:32;;;;;;;36.67;16.88;;;2.00;99.90;;;;;;5046254;28;20048;-76
2023/12/07 11:00:00;;;;;;;26.10;12.60;;;2.00;99.90;;;;;;5050269;28;20420;-75
2023/12/07 11:02:32;;;;;;;38.03;15.95;;;2.00;99.90;;;;;;5045798;28;20045;-75
2023/12/07 11:04:59;;;;;;;38.58;14.80;;;2.00;99.90;;;;;;5051265;28;20551;-73
2023/12/07 11:07:33;;;;;;;35.60;14.05;;;2.10;99.90;;;;;;5047809;28;20128;-72
2023/12/07 11:10:13;;;;;;;43.70;16.35;;;2.10;99.90;;;;;;5044667;28;20076;-72
2023/12/07 11:12:53;;;;;;;34.03;15.20;;;2.10;99.90;;;;;;5043087;28;20050;-73
2023/12/07 11:15:19;;;;;;;33.55;16.40;;;2.20;99.90;;;;;;5038106;28;20167;-74
2023/12/07 11:17:50;;;;;;;35.92;15.02;;;2.20;99.90;;;;;;5047189;28;20106;-73
2023/12/07 11:20:32;;;;;;;37.85;14.93;;;2.10;99.90;;;;;;5049062;28;20080;-73
2023/12/07 11:22:59;;;;;;;42.10;15.48;;;2.20;99.90;;;;;;5054722;28;20064;-73
2023/12/07 11:25:25;;;;;;;33.88;14.02;;;2.20;99.90;;;;;;5050928;28;20049;-75
2023/12/07 11:28:01;;;;;;;33.17;13.85;;;2.20;99.90;;;;;;5051507;28;20078;-74
2023/12/07 11:30:26;;;;;;;35.95;13.48;;;2.20;99.90;;;;;;5052311;28;20041;-74
2023/12/07 11:32:52;;;;;;;37.60;14.93;;;2.20;99.90;;;;;;5036820;28;20041;-75
2023/12/07 11:35:18;;;;;;;37.70;15.10;;;2.20;99.90;;;;;;5048484;28;20040;-73
2023/12/07 11:38:07;;;;;;;31.77;14.50;;;2.20;99.90;;;;;;5048859;28;20064;-74
2023/12/07 11:40:40;;;;;;;35.05;13.30;;;2.20;99.90;;;;;;5047726;28;20480;-74
2023/12/07 11:43:06;;;;;;;41.33;16.05;;;2.30;99.90;;;;;;5054755;28;20675;-74
2023/12/07 11:45:42;;;;;;;38.72;14.30;;;2.20;99.90;;;;;;5060105;28;20192;-74
2023/12/07 11:48:15;;;;;;;45.50;16.05;;;2.30;99.90;;;;;;5048518;28;20044;-73
2023/12/07 11:50:56;;;;;;;39.05;15.05;;;2.30;99.90;;;;;;5046383;28;20049;-73
2023/12/07 11:53:24;;;;;;;43.42;16.73;;;2.30;99.90;;;;;;5047430;28;20095;-76
2023/12/07 11:55:50;;;;;;;32.70;13.85;;;2.30;99.90;;;;;;5051949;28;20044;-74
2023/12/07 11:58:16;;;;;;;41.27;15.90;;;2.30;99.90;;;;;;5056996;28;20044;-74
2023/12/07 12:00:43;;;;;;;43.67;17.50;;;2.30;99.90;;;;;;5048955;28;20059;-76
2023/12/07 12:03:08;;;;;;;38.80;16.98;;;2.40;99.90;;;;;;5047537;28;20174;-71
2023/12/07 12:05:34;;;;;;;41.63;16.13;;;2.40;99.90;;;;;;5048491;28;20052;-72
2023/12/07 12:07:59;;;;;;;38.83;14.57;;;2.40;99.90;;;;;;5046343;28;20041;-73
2023/12/07 12:10:25;;;;;;;35.55;13.63;;;2.50;99.90;;;;;;5042729;28;20049;-74
2023/12/07 12:12:53;;;;;;;43.30;16.50;;;2.50;99.90;;;;;;5048354;28;20055;-73
2023/12/07 12:15:20;;;;;;;42.03;14.82;;;2.50;99.90;;;;;;5047014;28;20515;-73
2023/12/07 12:17:46;;;;;;;50.63;16.48;;;2.50;99.90;;;;;;5044299;28;20056;-73
2023/12/07 12:20:17;;;;;;;47.58;17.98;;;2.60;99.90;;;;;;5046878;28;20095;-74
2023/12/07 12:22:43;;;;;;;56.65;17.15;;;2.60;99.90;;;;;;5044541;28;20072;-73
2023/12/07 12:25:10;;;;;;;51.80;15.88;;;2.60;99.90;;;;;;5045433;28;20143;-74
2023/12/07 12:27:36;;;;;;;49.15;15.85;;;2.60;99.90;;;;;;5047357;28;20036;-74
2023/12/07 12:30:03;;;;;;;53.45;15.85;;;2.60;99.90;;;;;;5041808;28;20568;-73
2023/12/07 12:32:53;;;;;;;51.80;16.33;;;2.70;99.90;;;;;;5042428;28;20049;-74
2023/12/07 12:35:19;;;;;;;55.70;18.08;;;2.70;99.90;;;;;;5038941;28;20057;-69
2023/12/07 12:37:46;;;;;;;54.17;15.77;;;2.70;99.90;;;;;;5045597;28;20116;-70
2023/12/07 12:40:15;;;;;;;52.20;16.38;;;2.70;99.90;;;;;;5047254;28;20037;-70
2023/12/07 12:42:43;;;;;;;51.20;17.10;;;2.70;99.90;;;;;;5046805;28;20047;-73